createdAt,value
2018-02-05T00:02:02.140Z,102249.97
2018-02-05T00:04:29.809Z,102248.89
2018-02-05T00:06:57.409Z,102252.79
2018-02-05T00:09:24.976Z,102249.73
2018-02-05T00:11:52.542Z,102250.58
2018-02-05T00:14:20.072Z,102245.27
2018-02-05T00:16:47.607Z,102251.94
2018-02-05T00:19:15.163Z,102250.39
2018-02-05T00:21:42.936Z,102251.52
2018-02-05T00:24:10.510Z,102256.78
2018-02-05T00:26:38.364Z,102254.73
2018-02-05T00:29:05.884Z,102252.00
2018-02-05T00:31:33.504Z,102255.67
2018-02-05T00:34:01.043Z,102258.38
2018-02-05T00:36:28.557Z,102261.12
2018-02-05T00:38:56.103Z,102263.80
2018-02-05T00:41:23.862Z,102266.05
2018-02-05T00:43:51.686Z,102264.26
2018-02-05T00:46:19.213Z,102263.41
2018-02-05T00:48:46.977Z,102271.46
2018-02-05T00:51:14.519Z,102276.07
2018-02-05T00:53:42.146Z,102279.41
2018-02-05T00:56:09.682Z,102279.12
2018-02-05T00:58:37.193Z,102279.47
2018-02-05T01:01:04.756Z,102287.33
2018-02-05T01:03:32.286Z,102284.53
2018-02-05T01:05:59.878Z,102284.84
2018-02-05T01:08:27.534Z,102289.31
2018-02-05T01:10:55.097Z,102292.53
2018-02-05T01:13:22.626Z,102297.64
2018-02-05T01:15:50.155Z,102296.24
2018-02-05T01:18:17.715Z,102297.80
2018-02-05T01:20:45.321Z,102302.28
2018-02-05T01:23:12.867Z,102302.47
2018-02-05T01:25:40.421Z,102298.84
2018-02-05T01:28:08.403Z,102299.53
2018-02-05T01:30:36.010Z,102296.42
2018-02-05T01:33:03.536Z,102299.80
2018-02-05T01:35:31.303Z,102299.81
2018-02-05T01:37:58.859Z,102300.67
2018-02-05T01:40:26.386Z,102301.55
2018-02-05T01:42:53.917Z,102301.78
2018-02-05T01:45:21.478Z,102299.59
2018-02-05T01:47:49.039Z,102303.73
2018-02-05T01:50:16.628Z,102316.94
2018-02-05T01:52:44.166Z,102313.25
2018-02-05T01:55:11.784Z,102314.25
2018-02-05T01:57:39.321Z,102320.48
2018-02-05T02:00:07.407Z,102316.31
2018-02-05T02:02:35.010Z,102318.70
2018-02-05T02:05:02.557Z,102313.62
2018-02-05T02:07:30.121Z,102309.65
2018-02-05T02:09:57.732Z,102317.91
2018-02-05T02:12:25.270Z,102315.56
2018-02-05T02:14:53.076Z,102317.59
2018-02-05T02:17:20.661Z,102315.16
2018-02-05T02:19:48.284Z,102324.26
2018-02-05T02:22:15.855Z,102328.20
2018-02-05T02:24:43.411Z,102327.11
2018-02-05T02:27:10.938Z,102325.37
2018-02-05T02:29:38.468Z,102323.98
2018-02-05T02:32:06.019Z,102326.19
2018-02-05T02:34:33.570Z,102330.80
2018-02-05T02:37:01.136Z,102337.69
2018-02-05T02:39:28.680Z,102332.05
2018-02-05T02:41:56.247Z,102330.30
2018-02-05T02:44:23.793Z,102330.53
2018-02-05T02:46:51.356Z,102332.74
2018-02-05T02:49:18.908Z,102338.09
2018-02-05T02:51:46.428Z,102345.17
2018-02-05T02:54:13.961Z,102350.09
2018-02-05T02:56:41.534Z,102354.20
2018-02-05T02:59:09.166Z,102350.02
2018-02-05T03:01:36.753Z,102353.47
2018-02-05T03:04:04.288Z,102351.34
2018-02-05T03:06:31.809Z,102360.13
2018-02-05T03:08:59.725Z,102363.45
2018-02-05T03:11:27.285Z,102361.38
2018-02-05T03:13:54.798Z,102369.66
2018-02-05T03:16:22.723Z,102370.62
2018-02-05T03:18:50.254Z,102375.94
2018-02-05T03:21:17.811Z,102381.16
2018-02-05T03:23:45.420Z,102382.20
2018-02-05T03:26:13.238Z,102377.62
2018-02-05T03:28:40.900Z,102370.89
2018-02-05T03:31:08.456Z,102374.06
2018-02-05T03:33:35.991Z,102372.94
2018-02-05T03:36:03.596Z,102376.11
2018-02-05T03:38:31.105Z,102382.14
2018-02-05T03:40:58.939Z,102386.92
2018-02-05T03:43:26.504Z,102389.98
2018-02-05T03:45:54.052Z,102384.21
2018-02-05T03:48:21.582Z,102393.27
2018-02-05T03:50:49.113Z,102394.12
2018-02-05T03:53:16.714Z,102395.20
2018-02-05T03:55:44.260Z,102396.64
2018-02-05T03:58:11.802Z,102403.80
2018-02-05T04:00:39.376Z,102400.18
2018-02-05T04:03:06.936Z,102405.17
2018-02-05T04:05:34.741Z,102400.65
2018-02-05T04:08:02.332Z,102400.58
2018-02-05T04:10:29.873Z,102405.08
2018-02-05T04:12:57.409Z,102404.13
2018-02-05T04:15:24.997Z,102405.86
2018-02-05T04:17:52.533Z,102406.78
2018-02-05T04:20:20.080Z,102407.86
2018-02-05T04:22:47.632Z,102409.79
2018-02-05T04:25:15.166Z,102415.41
2018-02-05T04:27:42.727Z,102407.73
2018-02-05T04:30:10.381Z,102419.42
2018-02-05T04:32:37.921Z,102418.91
2018-02-05T04:35:05.571Z,102423.30
2018-02-05T04:37:33.444Z,102422.14
2018-02-05T04:40:01.005Z,102427.84
2018-02-05T04:42:28.586Z,102432.63
2018-02-05T04:44:56.096Z,102434.37
2018-02-05T04:47:23.648Z,102435.87
2018-02-05T04:49:51.228Z,102429.33
2018-02-05T04:52:18.808Z,102430.10
2018-02-05T04:54:46.328Z,102434.91
2018-02-05T04:57:13.869Z,102436.48
2018-02-05T04:59:41.420Z,102438.16
2018-02-05T05:02:09.005Z,102447.40
2018-02-05T05:04:36.607Z,102447.16
2018-02-05T05:07:04.160Z,102445.52
2018-02-05T05:09:31.775Z,102447.69
2018-02-05T05:11:59.320Z,102444.70
2018-02-05T05:14:26.865Z,102447.83
2018-02-05T05:16:54.386Z,102447.90
2018-02-05T05:19:21.983Z,102447.19
2018-02-05T05:21:49.577Z,102442.35
2018-02-05T05:24:17.104Z,102447.93
2018-02-05T05:26:44.672Z,102452.66
2018-02-05T05:29:12.213Z,102443.48
2018-02-05T05:31:39.764Z,102447.36
2018-02-05T05:34:07.350Z,102443.81
2018-02-05T05:36:35.270Z,102449.11
2018-02-05T05:39:02.838Z,102452.97
2018-02-05T05:41:30.401Z,102448.91
2018-02-05T05:43:58.199Z,102453.64
2018-02-05T05:46:25.715Z,102456.39
2018-02-05T05:48:53.287Z,102462.34
2018-02-05T05:51:21.082Z,102467.00
2018-02-05T05:53:48.597Z,102465.55
2018-02-05T05:56:16.202Z,102467.44
2018-02-05T05:58:43.764Z,102464.20
2018-02-05T06:01:11.321Z,102472.20
2018-02-05T06:03:38.880Z,102474.80
2018-02-05T06:06:07.122Z,102471.91
2018-02-05T06:08:34.718Z,102470.78
2018-02-05T06:11:02.242Z,102472.20
2018-02-05T06:13:29.790Z,102472.42
2018-02-05T06:15:57.350Z,102476.81
2018-02-05T06:18:24.877Z,102477.85
2018-02-05T06:20:52.405Z,102482.16
2018-02-05T06:23:20.010Z,102484.45
2018-02-05T06:25:47.537Z,102482.33
2018-02-05T06:28:17.594Z,102482.99
2018-02-05T06:30:45.118Z,102493.05
2018-02-05T06:33:12.694Z,102493.80
2018-02-05T06:35:40.237Z,102494.90
2018-02-05T06:38:08.114Z,102503.95
2018-02-05T06:40:35.646Z,102505.86
2018-02-05T06:43:03.196Z,102508.42
2018-02-05T06:45:30.756Z,102503.43
2018-02-05T06:47:58.397Z,102508.79
2018-02-05T06:50:37.715Z,102518.37
2018-02-05T06:53:17.097Z,102515.74
2018-02-05T06:55:47.619Z,102522.05
2018-02-05T06:58:15.183Z,102520.23
2018-02-05T07:00:43.090Z,102520.87
2018-02-05T07:03:10.637Z,102518.97
2018-02-05T07:05:38.222Z,102522.02
2018-02-05T07:08:05.749Z,102521.27
2018-02-05T07:10:33.318Z,102518.14
2018-02-05T07:13:00.866Z,102520.97
2018-02-05T07:15:28.397Z,102519.95
2018-02-05T07:17:55.982Z,102518.07
2018-02-05T07:20:23.884Z,102517.75
2018-02-05T07:22:51.414Z,102524.95
2018-02-05T07:25:18.996Z,102536.56
2018-02-05T07:27:46.625Z,102531.85
2018-02-05T07:30:14.156Z,102534.93
2018-02-05T07:32:41.699Z,102537.28
2018-02-05T07:35:09.220Z,102541.84
2018-02-05T07:37:36.894Z,102538.16
2018-02-05T07:40:04.569Z,102542.86
2018-02-05T07:42:32.100Z,102544.42
2018-02-05T07:44:59.685Z,102536.70
2018-02-05T07:47:27.671Z,102539.52
2018-02-05T07:49:55.291Z,102541.90
2018-02-05T07:52:22.849Z,102542.01
2018-02-05T07:54:50.414Z,102540.27
2018-02-05T07:57:18.664Z,102541.58
2018-02-05T07:59:46.209Z,102548.70
2018-02-05T08:02:13.725Z,102546.35
2018-02-05T08:04:41.324Z,102548.41
2018-02-05T08:07:08.849Z,102548.09
2018-02-05T08:09:36.400Z,102557.45
2018-02-05T08:12:03.947Z,102553.28
2018-02-05T08:14:31.768Z,102549.48
2018-02-05T08:16:59.334Z,102558.41
2018-02-05T08:19:27.190Z,102557.16
2018-02-05T08:21:54.734Z,102557.02
2018-02-05T08:24:22.297Z,102557.66
2018-02-05T08:26:49.851Z,102559.90
2018-02-05T08:29:17.740Z,102562.22
2018-02-05T08:31:45.299Z,102560.43
2018-02-05T08:34:12.858Z,102567.97
2018-02-05T08:36:40.622Z,102566.30
2018-02-05T08:39:08.490Z,102564.63
2018-02-05T08:41:36.086Z,102558.14
2018-02-05T08:44:03.632Z,102557.62
2018-02-05T08:46:31.149Z,102559.95
2018-02-05T08:48:58.750Z,102560.05
2018-02-05T08:51:26.282Z,102556.77
2018-02-05T08:53:53.899Z,102554.06
2018-02-05T08:56:21.461Z,102557.64
2018-02-05T08:58:49.047Z,102553.38
2018-02-05T09:01:16.858Z,102563.28
2018-02-05T09:03:44.476Z,102556.51
2018-02-05T09:06:12.166Z,102554.19
2018-02-05T09:08:40.048Z,102556.67
2018-02-05T09:11:07.716Z,102555.98
2018-02-05T09:13:35.278Z,102561.58
2018-02-05T09:16:02.853Z,102562.91
2018-02-05T09:18:30.398Z,102569.54
2018-02-05T09:20:57.925Z,102567.42
2018-02-05T09:23:25.491Z,102569.22
2018-02-05T09:25:53.033Z,102564.73
2018-02-05T09:28:20.734Z,102570.82
2018-02-05T09:30:48.367Z,102571.48
2018-02-05T09:33:16.699Z,102566.36
2018-02-05T09:35:44.537Z,102571.55
2018-02-05T09:38:12.121Z,102569.83
2018-02-05T09:40:39.764Z,102572.19
2018-02-05T09:43:07.951Z,102566.34
2018-02-05T09:45:35.540Z,102568.50
2018-02-05T09:48:03.176Z,102563.20
2018-02-05T09:50:30.723Z,102564.34
2018-02-05T09:52:58.246Z,102564.91
2018-02-05T09:55:25.827Z,102559.54
2018-02-05T09:57:53.355Z,102558.75
2018-02-05T10:00:20.903Z,102564.00
2018-02-05T10:02:48.454Z,102554.42
2018-02-05T10:05:15.987Z,102559.63
2018-02-05T10:07:43.858Z,102558.20
2018-02-05T10:10:11.402Z,102555.02
2018-02-05T10:12:39.673Z,102554.44
2018-02-05T10:15:07.295Z,102555.86
2018-02-05T10:17:34.877Z,102548.59
2018-02-05T10:20:02.425Z,102548.19
2018-02-05T10:22:30.579Z,102546.80
2018-02-05T10:24:58.438Z,102540.88
2018-02-05T10:27:26.198Z,102549.14
2018-02-05T10:29:54.154Z,102551.07
2018-02-05T10:32:21.935Z,102549.36
2018-02-05T10:34:50.747Z,102548.63
2018-02-05T10:37:18.395Z,102544.38
2018-02-05T10:39:45.992Z,102544.52
2018-02-05T10:42:13.629Z,102544.38
2018-02-05T10:44:41.196Z,102546.14
2018-02-05T10:47:08.747Z,102554.29
2018-02-05T10:49:36.389Z,102554.64
2018-02-05T10:52:03.965Z,102544.38
2018-02-05T10:54:31.552Z,102539.30
2018-02-05T10:56:59.245Z,102542.56
2018-02-05T10:59:26.829Z,102552.27
2018-02-05T11:01:54.704Z,102547.14
2018-02-05T11:04:22.302Z,102547.50
2018-02-05T11:06:49.847Z,102544.73
2018-02-05T11:09:17.383Z,102549.85
2018-02-05T11:11:44.994Z,102541.45
2018-02-05T11:14:12.568Z,102541.55
2018-02-05T11:16:40.104Z,102547.33
2018-02-05T11:19:07.632Z,102541.02
2018-02-05T11:21:35.152Z,102540.02
2018-02-05T11:24:02.699Z,102541.56
2018-02-05T11:26:30.505Z,102536.50
2018-02-05T11:28:58.045Z,102538.60
2018-02-05T11:31:25.595Z,102531.41
2018-02-05T11:33:53.122Z,102526.55
2018-02-05T11:36:20.851Z,102521.55
2018-02-05T11:38:48.828Z,102520.57
2018-02-05T11:41:16.487Z,102519.05
2018-02-05T11:43:44.120Z,102519.08
2018-02-05T11:46:11.718Z,102512.84
2018-02-05T11:48:39.325Z,102509.51
2018-02-05T11:51:06.882Z,102505.67
2018-02-05T11:53:34.408Z,102501.34
2018-02-05T11:56:01.949Z,102507.87
2018-02-05T11:58:29.477Z,102502.55
2018-02-05T12:00:57.054Z,102506.54
2018-02-05T12:03:24.673Z,102496.69
2018-02-05T12:05:52.329Z,102489.08
2018-02-05T12:08:20.158Z,102488.53
2018-02-05T12:10:47.703Z,102489.12
2018-02-05T12:13:15.594Z,102484.16
2018-02-05T12:15:43.230Z,102485.34
2018-02-05T12:18:10.873Z,102489.30
2018-02-05T12:20:38.606Z,102485.47
2018-02-05T12:23:06.190Z,102480.58
2018-02-05T12:25:34.011Z,102475.65
2018-02-05T12:28:01.568Z,102476.58
2018-02-05T12:30:30.023Z,102473.02
2018-02-05T12:32:57.572Z,102475.75
2018-02-05T12:35:25.122Z,102462.33
2018-02-05T12:37:52.700Z,102455.36
2018-02-05T12:40:20.241Z,102454.31
2018-02-05T12:42:47.800Z,102455.44
2018-02-05T12:45:15.359Z,102448.27
2018-02-05T12:47:42.994Z,102450.73
2018-02-05T12:50:10.551Z,102448.57
2018-02-05T12:52:38.223Z,102447.99
2018-02-05T12:55:06.168Z,102433.37
2018-02-05T12:57:33.734Z,102439.28
2018-02-05T13:00:06.803Z,102437.97
2018-02-05T13:02:34.619Z,102443.05
2018-02-05T13:07:59.557Z,102439.56
2018-02-05T13:10:27.096Z,102433.70
2018-02-05T13:12:54.934Z,102437.94
2018-02-05T13:15:22.485Z,102433.98
2018-02-05T13:17:50.289Z,102432.43
2018-02-05T13:20:17.865Z,102426.27
2018-02-05T13:22:45.425Z,102431.08
2018-02-05T13:25:12.976Z,102427.05
2018-02-05T13:27:40.536Z,102423.41
2018-02-05T13:30:08.054Z,102429.18
2018-02-05T13:32:35.614Z,102422.81
2018-02-05T13:35:03.170Z,102417.02
2018-02-05T13:37:30.725Z,102415.50
2018-02-05T13:39:58.261Z,102420.68
2018-02-05T13:42:25.833Z,102411.00
2018-02-05T13:44:53.394Z,102413.63
2018-02-05T13:47:20.943Z,102409.83
2018-02-05T13:49:48.755Z,102403.21
2018-02-05T13:52:16.634Z,102393.71
2018-02-05T13:54:44.149Z,102400.55
2018-02-05T13:57:11.690Z,102400.36
2018-02-05T13:59:39.231Z,102393.17
2018-02-05T14:02:07.076Z,102386.33
2018-02-05T14:04:34.672Z,102384.25
2018-02-05T14:07:02.242Z,102382.35
2018-02-05T14:09:29.764Z,102378.98
2018-02-05T14:11:57.304Z,102381.34
2018-02-05T14:14:24.838Z,102385.06
2018-02-05T14:16:52.428Z,102383.44
2018-02-05T14:19:20.306Z,102381.31
2018-02-05T14:21:48.175Z,102371.83
2018-02-05T14:24:15.771Z,102361.78
2018-02-05T14:26:43.287Z,102372.59
2018-02-05T14:29:10.863Z,102370.54
2018-02-05T14:31:38.391Z,102375.55
2018-02-05T14:34:05.955Z,102371.05
2018-02-05T14:36:33.506Z,102369.19
2018-02-05T14:39:01.040Z,102377.98
2018-02-05T14:41:28.559Z,102369.01
2018-02-05T14:43:56.119Z,102368.73
2018-02-05T14:46:23.715Z,102366.02
2018-02-05T14:48:51.257Z,102366.56
2018-02-05T14:51:18.810Z,102371.91
2018-02-05T14:53:46.385Z,102370.47
2018-02-05T14:56:14.217Z,102369.27
2018-02-05T14:58:41.790Z,102368.27
2018-02-05T15:01:09.305Z,102367.77
2018-02-05T15:03:36.856Z,102367.56
2018-02-05T15:06:04.413Z,102370.59
2018-02-05T15:08:31.940Z,102363.58
2018-02-05T15:10:59.798Z,102356.84
2018-02-05T15:13:27.333Z,102360.98
2018-02-05T15:15:54.872Z,102360.31
2018-02-05T15:18:22.498Z,102358.91
2018-02-05T15:20:50.026Z,102347.48
2018-02-05T15:23:17.575Z,102348.03
2018-02-05T15:25:45.490Z,102341.92
2018-02-05T15:28:13.011Z,102344.44
2018-02-05T15:30:40.609Z,102336.46
2018-02-05T15:33:08.196Z,102331.99
2018-02-05T15:35:35.749Z,102332.15
2018-02-05T15:38:03.279Z,102325.29
2018-02-05T15:40:30.850Z,102325.13
2018-02-05T15:42:58.510Z,102326.91
2018-02-05T15:45:26.065Z,102329.87
2018-02-05T15:47:53.601Z,102330.30
2018-02-05T15:50:21.181Z,102326.60
2018-02-05T15:52:48.722Z,102330.30
2018-02-05T15:55:16.270Z,102326.53
2018-02-05T15:57:43.856Z,102331.30
2018-02-05T16:00:11.450Z,102322.34
2018-02-05T16:02:38.953Z,102329.56
2018-02-05T16:05:06.547Z,102332.94
2018-02-05T16:07:34.079Z,102329.53
2018-02-05T16:10:01.623Z,102326.27
2018-02-05T16:12:29.184Z,102316.17
2018-02-05T16:14:56.726Z,102320.04
2018-02-05T16:17:24.326Z,102316.98
2018-02-05T16:19:51.912Z,102318.30
2018-02-05T16:22:19.472Z,102323.20
2018-02-05T16:24:47.009Z,102324.55
2018-02-05T16:27:14.678Z,102327.44
2018-02-05T16:29:42.290Z,102330.19
2018-02-05T16:32:10.118Z,102325.78
2018-02-05T16:34:37.689Z,102331.47
2018-02-05T16:37:05.238Z,102334.67
2018-02-05T16:39:32.799Z,102325.64
2018-02-05T16:42:00.577Z,102321.73
2018-02-05T16:44:28.529Z,102328.66
2018-02-05T16:46:56.090Z,102322.23
2018-02-05T16:49:23.642Z,102322.48
2018-02-05T16:51:51.189Z,102322.66
2018-02-05T16:54:18.830Z,102316.44
2018-02-05T16:56:46.358Z,102312.89
2018-02-05T16:59:13.888Z,102317.05
2018-02-05T17:01:41.425Z,102315.55
2018-02-05T17:04:09.050Z,102313.56
2018-02-05T17:06:36.596Z,102317.00
2018-02-05T17:09:04.491Z,102319.63
2018-02-05T17:11:32.095Z,102323.05
2018-02-05T17:13:59.625Z,102317.47
2018-02-05T17:16:27.317Z,102320.91
2018-02-05T17:18:54.856Z,102319.17
2018-02-05T17:21:22.489Z,102317.42
2018-02-05T17:23:50.056Z,102320.09
2018-02-05T17:26:17.629Z,102322.82
2018-02-05T17:28:45.217Z,102317.92
2018-02-05T17:31:12.793Z,102321.94
2018-02-05T17:33:40.338Z,102323.64
2018-02-05T17:36:07.890Z,102320.69
2018-02-05T17:38:35.440Z,102316.25
2018-02-05T17:41:03.025Z,102316.61
2018-02-05T17:43:30.566Z,102317.81
2018-02-05T17:45:58.137Z,102324.13
2018-02-05T17:48:25.766Z,102321.11
2018-02-05T17:50:53.330Z,102319.14
2018-02-05T17:53:20.875Z,102321.98
2018-02-05T17:55:48.500Z,102323.61
2018-02-05T17:58:16.071Z,102322.77
2018-02-05T18:00:44.489Z,102330.08
2018-02-05T18:03:12.320Z,102321.09
2018-02-05T18:05:39.869Z,102323.09
2018-02-05T18:08:07.424Z,102321.34
2018-02-05T18:10:35.504Z,102315.66
2018-02-05T18:13:03.495Z,102323.39
2018-02-05T18:15:31.030Z,102315.72
2018-02-05T18:17:58.609Z,102319.44
2018-02-05T18:20:26.474Z,102321.24
2018-02-05T18:22:54.038Z,102319.25
2018-02-05T18:25:21.574Z,102317.61
2018-02-05T18:27:49.230Z,102314.70
2018-02-05T18:30:17.027Z,102316.45
2018-02-05T18:32:44.570Z,102316.05
2018-02-05T18:35:12.189Z,102312.06
2018-02-05T18:37:39.735Z,102308.89
2018-02-05T18:40:07.414Z,102311.23
2018-02-05T18:42:35.244Z,102307.98
2018-02-05T18:45:03.124Z,102308.20
2018-02-05T18:47:30.698Z,102300.21
2018-02-05T18:49:58.248Z,102301.56
2018-02-05T18:52:25.818Z,102306.06
2018-02-05T18:54:53.421Z,102301.20
2018-02-05T18:57:21.211Z,102295.19
2018-02-05T18:59:48.795Z,102294.84
2018-02-05T19:02:21.248Z,102292.16
2018-02-05T19:04:48.881Z,102291.09
2018-02-05T19:07:16.394Z,102294.20
2018-02-05T19:09:43.914Z,102290.58
2018-02-05T19:12:11.474Z,102285.53
2018-02-05T19:14:39.014Z,102289.27
2018-02-05T19:17:06.625Z,102297.55
2018-02-05T19:19:34.184Z,102295.22
2018-02-05T19:22:01.747Z,102296.67
2018-02-05T19:24:29.439Z,102287.22
2018-02-05T19:26:57.092Z,102284.70
2018-02-05T19:29:24.627Z,102281.42
2018-02-05T19:31:52.258Z,102285.22
2018-02-05T19:34:19.906Z,102281.67
2018-02-05T19:36:47.502Z,102279.23
2018-02-05T19:39:15.038Z,102274.39
2018-02-05T19:41:42.619Z,102271.09
2018-02-05T19:44:10.186Z,102268.36
2018-02-05T19:46:37.792Z,102266.28
2018-02-05T19:49:05.351Z,102263.83
2018-02-05T19:51:32.899Z,102268.00
2018-02-05T19:54:00.461Z,102267.15
2018-02-05T19:56:28.022Z,102268.62
2018-02-05T19:58:55.532Z,102262.80
2018-02-05T20:01:23.324Z,102257.22
2018-02-05T20:03:50.867Z,102258.28
2018-02-05T20:06:18.390Z,102258.09
2018-02-05T20:08:45.955Z,102257.20
2018-02-05T20:11:13.771Z,102254.75
2018-02-05T20:13:41.639Z,102253.51
2018-02-05T20:16:09.210Z,102251.82
2018-02-05T20:18:36.800Z,102251.24
2018-02-05T20:21:04.363Z,102247.70
2018-02-05T20:23:32.193Z,102239.80
2018-02-05T20:25:59.768Z,102245.02
2018-02-05T20:28:27.319Z,102245.48
2018-02-05T20:30:54.869Z,102246.27
2018-02-05T20:33:22.471Z,102245.52
2018-02-05T20:35:50.018Z,102244.84
2018-02-05T20:38:17.629Z,102244.38
2018-02-05T20:40:45.621Z,102242.21
2018-02-05T20:43:13.173Z,102233.45
2018-02-05T20:45:40.782Z,102238.24
2018-02-05T20:48:08.334Z,102230.11
2018-02-05T20:50:35.931Z,102235.16
2018-02-05T20:53:03.504Z,102229.41
2018-02-05T20:55:31.291Z,102230.80
2018-02-05T20:57:58.889Z,102228.80
2018-02-05T21:00:26.470Z,102225.98
2018-02-05T21:02:54.058Z,102219.84
2018-02-05T21:05:21.620Z,102217.59
2018-02-05T21:07:49.194Z,102221.52
2018-02-05T21:10:16.825Z,102223.20
2018-02-05T21:12:44.933Z,102221.06
2018-02-05T21:15:12.898Z,102215.85
2018-02-05T21:17:40.563Z,102216.31
2018-02-05T21:20:08.181Z,102221.13
2018-02-05T21:22:36.809Z,102214.64
2018-02-05T21:25:04.824Z,102216.37
2018-02-05T21:27:32.383Z,102212.84
2018-02-05T21:29:59.910Z,102215.55
2018-02-05T21:32:27.528Z,102209.49
2018-02-05T21:34:55.074Z,102204.93
2018-02-05T21:37:22.630Z,102209.42
2018-02-05T21:39:50.632Z,102204.31
2018-02-05T21:42:18.427Z,102204.14
2018-02-05T21:44:46.177Z,102195.81
2018-02-05T21:47:13.745Z,102191.48
2018-02-05T21:49:41.289Z,102190.56
2018-02-05T21:52:08.821Z,102193.13
2018-02-05T21:54:36.456Z,102185.95
2018-02-05T21:57:04.082Z,102183.42
2018-02-05T21:59:31.930Z,102183.42
2018-02-05T22:01:59.841Z,102184.41
2018-02-05T22:04:27.447Z,102182.54
2018-02-05T22:06:55.004Z,102177.06
2018-02-05T22:09:22.593Z,102170.94
2018-02-05T22:11:50.141Z,102170.51
2018-02-05T22:14:18.060Z,102169.66
2018-02-05T22:16:45.651Z,102167.59
2018-02-05T22:19:13.289Z,102161.03
2018-02-05T22:21:40.903Z,102160.08
2018-02-05T22:24:08.472Z,102157.46
2018-02-05T22:26:36.006Z,102153.20
2018-02-05T22:29:03.632Z,102147.85
2018-02-05T22:31:31.158Z,102147.85
2018-02-05T22:33:58.805Z,102142.80
2018-02-05T22:36:26.411Z,102138.61
2018-02-05T22:38:53.932Z,102133.95
2018-02-05T22:41:21.523Z,102140.12
2018-02-05T22:43:49.063Z,102138.52
2018-02-05T22:46:16.853Z,102131.59
2018-02-05T22:48:44.476Z,102126.81
2018-02-05T22:51:12.015Z,102119.51
2018-02-05T22:53:39.593Z,102119.44
2018-02-05T22:56:07.135Z,102113.38
2018-02-05T22:58:34.781Z,102110.00
2018-02-05T23:01:03.067Z,102111.77
2018-02-05T23:03:30.622Z,102107.48
2018-02-05T23:05:58.149Z,102102.73
2018-02-05T23:08:25.899Z,102106.83
2018-02-05T23:10:53.422Z,102099.45
2018-02-05T23:13:21.034Z,102098.97
2018-02-05T23:15:48.582Z,102093.69
2018-02-05T23:18:16.106Z,102088.48
2018-02-05T23:20:43.702Z,102084.55
2018-02-05T23:23:11.295Z,102081.07
2018-02-05T23:25:38.844Z,102073.17
2018-02-05T23:28:06.443Z,102078.80
2018-02-05T23:30:34.120Z,102074.77
2018-02-05T23:33:01.686Z,102070.97
2018-02-05T23:35:29.251Z,102070.94
2018-02-05T23:37:56.852Z,102071.33
2018-02-05T23:40:24.476Z,102070.94
2018-02-05T23:42:52.502Z,102068.78
2018-02-05T23:45:20.068Z,102066.19
2018-02-05T23:47:47.624Z,102060.52
2018-02-05T23:50:15.282Z,102065.80
2018-02-05T23:52:42.822Z,102061.50
2018-02-05T23:55:10.411Z,102065.94
2018-02-05T23:57:37.999Z,102057.90
